createdAt,value
2022-07-25T00:00:29.751Z,24.06
2022-07-25T14:05:40.093Z,34.26
2022-07-25T14:08:08.221Z,34.25
2022-07-25T14:10:35.906Z,34.21
2022-07-25T14:13:03.552Z,34.19
2022-07-25T14:15:31.227Z,34.19
2022-07-25T14:17:58.775Z,34.19
2022-07-25T14:45:25.496Z,34.01
2022-07-25T14:48:08.388Z,33.88
2022-07-25T14:50:37.135Z,33.74
2022-07-25T14:53:40.787Z,33.59
2022-07-25T14:56:32.688Z,33.47
2022-07-25T14:59:44.211Z,33.42
2022-07-25T15:02:35.369Z,33.41
2022-07-25T15:05:13.376Z,33.40
2022-07-25T15:07:51.703Z,33.38
2022-07-25T15:10:28.614Z,33.38
2022-07-25T15:16:10.788Z,33.32
2022-07-25T15:29:21.407Z,33.07
2022-07-25T15:31:49.241Z,33.00
2022-07-25T15:34:17.230Z,32.86
2022-07-25T15:36:44.924Z,32.51
2022-07-25T15:39:12.764Z,32.21
2022-07-25T15:41:40.504Z,31.91
2022-07-25T15:44:08.171Z,31.66
2022-07-25T15:46:39.968Z,31.49
2022-07-25T15:49:07.989Z,31.37
2022-07-25T15:51:36.422Z,31.25
2022-07-25T15:54:04.299Z,31.15
2022-07-25T15:56:32.064Z,31.05
2022-07-25T15:58:59.913Z,30.97
2022-07-25T16:01:28.095Z,30.89
2022-07-25T16:03:59.829Z,30.81
2022-07-25T16:06:27.739Z,30.77
2022-07-25T16:08:56.102Z,30.72
2022-07-25T16:11:23.911Z,30.69
2022-07-25T16:13:51.674Z,30.66
2022-07-25T16:16:22.038Z,30.62
2022-07-25T16:18:50.055Z,30.58
2022-07-25T16:21:19.239Z,30.58
2022-07-25T16:23:47.029Z,30.52
2022-07-25T16:26:14.778Z,30.48
2022-07-25T16:28:42.736Z,30.43
2022-07-25T16:31:10.569Z,30.39
2022-07-25T16:33:38.376Z,30.34
2022-07-25T16:36:06.438Z,30.31
2022-07-25T16:38:35.639Z,30.30
2022-07-25T16:41:03.416Z,30.27
2022-07-25T16:43:31.130Z,30.26
2022-07-25T16:45:58.864Z,30.26
2022-07-25T16:48:26.559Z,30.26
2022-07-25T16:50:54.427Z,30.26
2022-07-25T16:53:22.501Z,30.26
2022-07-25T16:55:51.614Z,30.26
2022-07-25T16:58:19.427Z,30.26
2022-07-25T17:00:47.254Z,30.30
2022-07-25T17:03:16.260Z,30.30
2022-07-25T17:05:44.083Z,30.31
2022-07-25T17:08:11.870Z,30.33
2022-07-25T17:10:40.152Z,30.34
2022-07-25T17:13:09.515Z,30.34
2022-07-25T17:15:37.357Z,30.35
2022-07-25T17:18:05.608Z,30.36
2022-07-25T17:20:33.302Z,30.38
2022-07-25T17:23:01.287Z,30.39
2022-07-25T17:25:29.180Z,30.38
2022-07-25T17:27:57.050Z,30.37
2022-07-25T17:30:27.259Z,30.35
2022-07-25T17:32:55.031Z,30.33
2022-07-25T17:35:22.804Z,30.30
2022-07-25T17:37:50.583Z,30.25
2022-07-25T17:40:18.398Z,30.21
2022-07-25T17:42:47.650Z,30.20
2022-07-25T17:45:15.997Z,30.15
2022-07-25T17:47:45.426Z,30.09
2022-07-25T17:50:14.083Z,30.03
2022-07-25T17:52:41.715Z,29.97
2022-07-25T17:55:10.201Z,29.94
2022-07-25T17:57:38.034Z,29.90
2022-07-25T18:00:06.918Z,29.87
2022-07-25T18:02:34.676Z,29.86
2022-07-25T18:05:03.866Z,29.83
2022-07-25T18:07:31.568Z,29.83
2022-07-25T18:10:01.035Z,29.81
2022-07-25T18:12:29.519Z,29.80
2022-07-25T18:14:57.452Z,29.79
2022-07-25T18:17:25.155Z,29.77
2022-07-25T18:19:52.733Z,29.78
2022-07-25T18:22:21.715Z,29.75
2022-07-25T18:24:49.461Z,29.75
2022-07-25T18:27:17.239Z,29.74
2022-07-25T18:29:44.929Z,29.75
2022-07-25T18:32:12.620Z,29.73
2022-07-25T18:34:40.279Z,29.73
2022-07-25T18:37:07.963Z,29.72
2022-07-25T18:39:37.132Z,29.70
2022-07-25T18:42:04.941Z,29.68
2022-07-25T18:44:32.940Z,29.68
2022-07-25T18:47:02.086Z,29.65
2022-07-25T18:49:29.784Z,29.63
2022-07-25T18:51:57.586Z,29.57
2022-07-25T18:54:25.261Z,29.53
2022-07-25T18:56:54.330Z,29.51
2022-07-25T18:59:24.016Z,29.46
2022-07-25T19:01:53.235Z,29.41
2022-07-25T19:04:20.978Z,29.37
2022-07-25T19:06:49.940Z,29.34
2022-07-25T19:09:17.995Z,29.30
2022-07-25T19:11:45.622Z,29.24
2022-07-25T19:14:14.891Z,29.18
2022-07-25T19:16:42.855Z,29.13
2022-07-25T19:19:10.944Z,29.07
2022-07-25T19:21:38.798Z,29.03
2022-07-25T19:24:07.679Z,28.97
2022-07-25T19:26:35.696Z,28.92
2022-07-25T19:29:03.298Z,28.85
2022-07-25T19:31:32.541Z,28.82
2022-07-25T19:34:00.189Z,28.78
2022-07-25T19:36:27.831Z,28.74
2022-07-25T19:38:55.490Z,28.68
2022-07-25T19:41:23.226Z,28.59
2022-07-25T19:43:52.416Z,28.54
2022-07-25T19:46:20.191Z,28.46
2022-07-25T19:48:50.224Z,28.43
2022-07-25T19:51:18.005Z,28.34
2022-07-25T19:53:45.636Z,28.27
2022-07-25T19:56:13.237Z,28.20
2022-07-25T19:58:43.483Z,28.14
2022-07-25T20:01:11.697Z,28.08
2022-07-25T20:03:39.365Z,28.02
2022-07-25T20:06:08.994Z,27.98
2022-07-25T20:08:37.087Z,27.90
2022-07-25T20:11:04.900Z,27.86
2022-07-25T20:13:32.568Z,27.84
2022-07-25T20:16:00.399Z,27.80
2022-07-25T20:18:28.084Z,27.76
2022-07-25T20:20:55.691Z,27.69
2022-07-25T20:23:25.436Z,27.64
2022-07-25T20:25:53.265Z,27.60
2022-07-25T20:28:20.838Z,27.56
2022-07-25T20:30:48.577Z,27.52
2022-07-25T20:33:17.228Z,27.46
2022-07-25T20:35:45.220Z,27.41
2022-07-25T20:38:12.841Z,27.35
2022-07-25T20:40:49.304Z,27.30
2022-07-25T20:43:17.718Z,27.25
2022-07-25T20:45:45.718Z,27.22
2022-07-25T20:48:15.212Z,27.18
2022-07-25T20:50:43.297Z,27.12
2022-07-25T20:53:11.324Z,27.06
2022-07-25T20:55:39.280Z,27.02
2022-07-25T20:58:08.230Z,26.96
2022-07-25T21:00:35.899Z,26.89
2022-07-25T21:03:03.739Z,26.83
2022-07-25T21:05:31.521Z,26.78
2022-07-25T21:07:59.127Z,26.75
2022-07-25T21:10:27.108Z,26.74
2022-07-25T21:12:56.616Z,26.73
2022-07-25T21:15:25.833Z,26.69
2022-07-25T21:17:53.437Z,26.67
2022-07-25T21:20:21.003Z,26.63
2022-07-25T21:22:48.683Z,26.62
2022-07-25T21:25:16.326Z,26.60
2022-07-25T21:27:44.015Z,26.58
2022-07-25T21:30:12.700Z,26.55
2022-07-25T21:32:42.477Z,26.50
2022-07-25T21:35:10.395Z,26.46
2022-07-25T21:37:38.098Z,26.43
2022-07-25T21:40:06.498Z,26.41
2022-07-25T21:42:34.066Z,26.38
2022-07-25T21:45:01.576Z,26.33
2022-07-25T21:47:29.078Z,26.27
2022-07-25T21:50:15.403Z,26.24
2022-07-25T21:52:52.366Z,26.18
2022-07-25T21:55:20.899Z,26.16
2022-07-25T21:57:48.928Z,26.13
2022-07-25T22:00:16.844Z,26.08
2022-07-25T22:02:45.656Z,26.05
2022-07-25T22:05:15.916Z,26.02
2022-07-25T22:07:44.649Z,25.97
2022-07-25T22:10:13.863Z,25.93
2022-07-25T22:12:41.890Z,25.90
2022-07-25T22:15:12.127Z,25.86
2022-07-25T22:17:48.945Z,25.83
2022-07-25T22:20:19.125Z,25.82
2022-07-25T22:22:47.107Z,25.80
2022-07-25T22:25:14.726Z,25.79
2022-07-25T22:27:42.279Z,25.79
2022-07-25T22:30:16.391Z,25.76
2022-07-25T22:32:46.178Z,25.73
2022-07-25T22:35:13.900Z,25.68
2022-07-25T22:37:42.760Z,25.61
2022-07-25T22:40:11.182Z,25.57
2022-07-25T22:42:38.786Z,25.54
2022-07-25T22:45:07.798Z,25.54
2022-07-25T22:47:35.377Z,25.55
2022-07-25T22:50:04.042Z,25.55
2022-07-25T22:52:31.653Z,25.55
2022-07-25T22:55:00.525Z,25.53
2022-07-25T22:57:28.076Z,25.49
2022-07-25T22:59:55.582Z,25.45
2022-07-25T23:02:24.113Z,25.42
2022-07-25T23:04:51.664Z,25.38
2022-07-25T23:07:19.203Z,25.36
2022-07-25T23:09:46.702Z,25.37
2022-07-25T23:12:15.555Z,25.38
2022-07-25T23:14:43.107Z,25.38
2022-07-25T23:17:20.053Z,25.39
2022-07-25T23:19:49.017Z,25.39
2022-07-25T23:22:17.191Z,25.38
2022-07-25T23:24:45.577Z,25.41
2022-07-25T23:27:13.754Z,25.44
2022-07-25T23:29:43.315Z,25.45
2022-07-25T23:32:10.882Z,25.46
2022-07-25T23:34:38.560Z,25.47
2022-07-25T23:37:06.209Z,25.48
2022-07-25T23:39:33.887Z,25.45
2022-07-25T23:42:02.366Z,25.43
2022-07-25T23:44:30.166Z,25.41
2022-07-25T23:46:59.847Z,25.43
2022-07-25T23:49:29.051Z,25.44
2022-07-25T23:51:57.203Z,25.42
2022-07-25T23:54:25.594Z,25.44
2022-07-25T23:56:53.304Z,25.45
2022-07-25T23:59:21.001Z,25.46
